Time;durP1;ratioP1;P1;durP2;ratioP2;P2;SDS_P1;SDS_P2;PMS_P1;PMS_P2;Temp;Humidity;BMP_temperature;BMP_pressure;BME280_temperature;BME280_humidity;BME280_pressure;Samples;Min_cycle;Max_cycle;Signal;HPM_P1;HPM_P2
2021/04/23 00:00:53;;;;;;;2.33;1.10;;;;;;;;;;5068680;28;20036;-56
2021/04/23 00:03:30;;;;;;;2.30;0.90;;;;;;;;;;5069630;28;20041;-53
2021/04/23 00:06:07;;;;;;;3.63;1.33;;;;;;;;;;5070148;28;20040;-50
2021/04/23 00:08:34;;;;;;;0.80;0.80;;;;;;;;;;5065903;28;20037;-54
2021/04/23 00:11:01;;;;;;;1.42;1.00;;;;;;;;;;5068890;28;20044;-49
2021/04/23 00:13:27;;;;;;;2.65;1.17;;;;;;;;;;5070442;28;20049;-52
2021/04/23 00:15:54;;;;;;;2.53;1.40;;;;;;;;;;5067591;28;20113;-52
2021/04/23 00:18:22;;;;;;;2.40;0.90;;;;;;;;;;5068315;28;20049;-52
2021/04/23 00:20:48;;;;;;;5.70;1.00;;;;;;;;;;5069560;28;20041;-56
2021/04/23 00:23:15;;;;;;;2.50;0.95;;;;;;;;;;5071289;28;20522;-52
2021/04/23 00:25:41;;;;;;;3.00;1.00;;;;;;;;;;5071314;28;20032;-50
2021/04/23 00:28:09;;;;;;;1.92;1.05;;;;;;;;;;5069515;28;20072;-51
2021/04/23 00:30:38;;;;;;;1.75;0.85;;;;;;;;;;5065887;28;20130;-50
2021/04/23 00:33:05;;;;;;;2.33;1.02;;;;;;;;;;5065028;28;20144;-52
2021/04/23 00:35:34;;;;;;;4.25;1.42;;;;;;;;;;5066636;28;20123;-53
2021/04/23 00:38:01;;;;;;;1.10;1.00;;;;;;;;;;5068005;28;20040;-53
2021/04/23 00:40:31;;;;;;;1.00;0.77;;;;;;;;;;5067748;28;20119;-54
2021/04/23 00:43:04;;;;;;;1.10;0.73;;;;;;;;;;5069006;28;20413;-50
2021/04/23 00:45:31;;;;;;;2.60;0.98;;;;;;;;;;5066951;28;20542;-53
2021/04/23 00:47:59;;;;;;;1.05;0.68;;;;;;;;;;5067254;28;20098;-52
2021/04/23 00:50:32;;;;;;;2.95;0.90;;;;;;;;;;5069896;28;20062;-50
2021/04/23 00:52:59;;;;;;;1.13;0.93;;;;;;;;;;5068403;28;20040;-51
2021/04/23 00:55:27;;;;;;;1.92;1.10;;;;;;;;;;5068987;28;20041;-52
2021/04/23 00:57:53;;;;;;;2.03;0.90;;;;;;;;;;5069490;28;20995;-53
2021/04/23 01:00:20;;;;;;;2.23;1.10;;;;;;;;;;5068480;28;20633;-55
2021/04/23 01:02:46;;;;;;;3.60;1.00;;;;;;;;;;5067784;28;20462;-51
2021/04/23 01:05:14;;;;;;;0.90;0.85;;;;;;;;;;5068995;28;20056;-56
2021/04/23 01:07:50;;;;;;;3.55;0.80;;;;;;;;;;5066346;28;20071;-52
2021/04/23 01:10:17;;;;;;;2.05;1.10;;;;;;;;;;5066204;28;20061;-50
2021/04/23 01:12:44;;;;;;;2.63;0.90;;;;;;;;;;5068289;28;20040;-53
2021/04/23 01:15:11;;;;;;;1.98;0.80;;;;;;;;;;5068027;28;20094;-52
2021/04/23 01:17:37;;;;;;;1.65;0.90;;;;;;;;;;5068462;28;20094;-54
2021/04/23 01:20:06;;;;;;;2.33;0.82;;;;;;;;;;5068323;28;20094;-50
2021/04/23 01:22:32;;;;;;;3.63;1.00;;;;;;;;;;5067514;28;20037;-51
2021/04/23 01:24:59;;;;;;;2.33;0.80;;;;;;;;;;5067931;28;20094;-51
2021/04/23 01:27:26;;;;;;;0.77;0.70;;;;;;;;;;5069636;28;20298;-50
2021/04/23 01:29:52;;;;;;;4.63;1.20;;;;;;;;;;5068017;28;20126;-51
2021/04/23 01:32:18;;;;;;;1.10;0.90;;;;;;;;;;5070977;28;20045;-51
2021/04/23 01:34:45;;;;;;;1.92;1.02;;;;;;;;;;5068622;28;20037;-52
2021/04/23 01:37:13;;;;;;;2.72;1.10;;;;;;;;;;5063507;28;20135;-51
2021/04/23 01:39:39;;;;;;;;;;;;;;;;;;5066837;28;20115;-52
2021/04/23 01:42:06;;;;;;;1.65;1.00;;;;;;;;;;5066817;28;20455;-53
2021/04/23 01:44:32;;;;;;;1.73;0.85;;;;;;;;;;5066979;28;20041;-52
2021/04/23 01:46:59;;;;;;;1.73;1.00;;;;;;;;;;5068180;28;20488;-52
2021/04/23 01:49:26;;;;;;;2.65;1.23;;;;;;;;;;5068413;28;20138;-54
2021/04/23 01:52:13;;;;;;;0.88;0.68;;;;;;;;;;5068145;28;20452;-54
2021/04/23 01:54:39;;;;;;;1.60;0.90;;;;;;;;;;5067775;28;20483;-50
2021/04/23 01:57:05;;;;;;;0.80;0.70;;;;;;;;;;5069186;28;20135;-52
2021/04/23 01:59:32;;;;;;;2.75;1.20;;;;;;;;;;5068019;28;20040;-53
2021/04/23 02:01:59;;;;;;;1.02;0.80;;;;;;;;;;5065952;28;20036;-50
2021/04/23 02:04:26;;;;;;;1.27;0.85;;;;;;;;;;5069149;28;20045;-51
2021/04/23 02:06:52;;;;;;;1.55;1.00;;;;;;;;;;5068176;28;20094;-52
2021/04/23 02:09:19;;;;;;;1.83;0.90;;;;;;;;;;5064262;28;20142;-53
2021/04/23 02:11:47;;;;;;;4.70;0.90;;;;;;;;;;5070314;28;20043;-50
2021/04/23 02:14:14;;;;;;;0.98;0.80;;;;;;;;;;5063900;28;20073;-52
2021/04/23 02:16:41;;;;;;;4.55;1.83;;;;;;;;;;5066585;28;20665;-53
2021/04/23 02:19:09;;;;;;;2.22;0.88;;;;;;;;;;5067101;28;20094;-53
2021/04/23 02:21:36;;;;;;;0.93;0.73;;;;;;;;;;5067225;28;20101;-51
2021/04/23 02:24:03;;;;;;;4.18;1.10;;;;;;;;;;5066341;28;20050;-53
2021/04/23 02:26:31;;;;;;;1.55;0.90;;;;;;;;;;5065276;28;20045;-52
2021/04/23 02:28:57;;;;;;;1.63;0.70;;;;;;;;;;5064973;28;20083;-53
2021/04/23 02:31:25;;;;;;;3.88;1.33;;;;;;;;;;5066582;28;20052;-49
2021/04/23 02:33:54;;;;;;;1.23;1.00;;;;;;;;;;5065952;28;20074;-55
2021/04/23 02:36:21;;;;;;;2.00;1.05;;;;;;;;;;5067046;28;20040;-52
2021/04/23 02:38:48;;;;;;;0.70;0.70;;;;;;;;;;5067660;28;20044;-54
2021/04/23 02:41:15;;;;;;;;;;;;;;;;;;5066065;28;20107;-50
2021/04/23 02:43:44;;;;;;;1.25;0.70;;;;;;;;;;5068188;28;19943;-55
2021/04/23 02:46:11;;;;;;;0.82;0.80;;;;;;;;;;5065149;28;20120;-54
2021/04/23 02:48:38;;;;;;;5.22;0.85;;;;;;;;;;5063932;28;20506;-55
2021/04/23 02:51:07;;;;;;;2.95;0.95;;;;;;;;;;5069899;28;20043;-54
2021/04/23 02:53:34;;;;;;;6.30;1.00;;;;;;;;;;5068028;28;20500;-55
2021/04/23 02:56:01;;;;;;;1.05;0.80;;;;;;;;;;5068797;28;20048;-53
2021/04/23 02:58:28;;;;;;;4.72;1.00;;;;;;;;;;5064231;28;20048;-56
2021/04/23 03:00:56;;;;;;;0.65;0.63;;;;;;;;;;5070211;28;20127;-51
2021/04/23 03:03:22;;;;;;;1.83;1.00;;;;;;;;;;5070903;28;20058;-55
2021/04/23 03:05:52;;;;;;;2.70;1.10;;;;;;;;;;5065806;28;20075;-50
2021/04/23 03:08:19;;;;;;;1.33;0.98;;;;;;;;;;5070155;28;20120;-52
2021/04/23 03:10:47;;;;;;;1.13;0.95;;;;;;;;;;5070770;28;20044;-50
2021/04/23 03:13:20;;;;;;;5.20;1.10;;;;;;;;;;5069551;28;20523;-53
2021/04/23 03:15:46;;;;;;;3.30;1.13;;;;;;;;;;5067989;28;20048;-51
2021/04/23 03:18:14;;;;;;;3.03;1.05;;;;;;;;;;5067921;28;20072;-50
2021/04/23 03:20:40;;;;;;;0.70;0.68;;;;;;;;;;5069553;28;20044;-50
2021/04/23 03:23:07;;;;;;;1.10;0.63;;;;;;;;;;5069386;28;20044;-53
2021/04/23 03:25:33;;;;;;;2.97;1.10;;;;;;;;;;5071294;28;20051;-55
2021/04/23 03:28:00;;;;;;;1.73;0.98;;;;;;;;;;5068170;28;20041;-55
2021/04/23 03:30:29;;;;;;;1.55;0.73;;;;;;;;;;5070689;28;20072;-53
2021/04/23 03:32:55;;;;;;;2.53;0.85;;;;;;;;;;5070494;28;20081;-55
2021/04/23 03:35:21;;;;;;;3.20;0.90;;;;;;;;;;5074798;28;20098;-55
2021/04/23 03:37:48;;;;;;;3.85;1.27;;;;;;;;;;5070069;28;20064;-52
2021/04/23 03:40:16;;;;;;;3.08;1.02;;;;;;;;;;5072728;28;20040;-54
2021/04/23 03:42:42;;;;;;;2.50;1.02;;;;;;;;;;5073870;28;20052;-56
2021/04/23 03:45:09;;;;;;;4.45;1.00;;;;;;;;;;5064923;28;20044;-54
2021/04/23 03:47:36;;;;;;;1.55;0.82;;;;;;;;;;5066671;28;20090;-51
2021/04/23 03:50:07;;;;;;;1.73;1.25;;;;;;;;;;5067913;28;20090;-53
2021/04/23 03:52:33;;;;;;;1.80;0.95;;;;;;;;;;5069481;28;20048;-54
2021/04/23 03:55:01;;;;;;;2.38;1.05;;;;;;;;;;5068411;28;20048;-56
2021/04/23 03:57:27;;;;;;;;;;;;;;;;;;5069441;28;20048;-55
2021/04/23 03:59:53;;;;;;;1.42;0.95;;;;;;;;;;5069318;28;19924;-52
2021/04/23 04:02:19;;;;;;;2.00;1.20;;;;;;;;;;5067680;28;20126;-51
2021/04/23 04:04:46;;;;;;;2.72;1.23;;;;;;;;;;5065615;28;20424;-50
2021/04/23 04:07:13;;;;;;;1.30;0.80;;;;;;;;;;5068682;28;20094;-52
2021/04/23 04:09:39;;;;;;;1.83;1.05;;;;;;;;;;5068523;28;20049;-51
2021/04/23 04:12:05;;;;;;;3.88;1.15;;;;;;;;;;5067071;28;20036;-50
2021/04/23 04:14:32;;;;;;;3.53;1.10;;;;;;;;;;5067378;28;20040;-51
2021/04/23 04:16:58;;;;;;;1.40;0.93;;;;;;;;;;5064226;28;20028;-55
2021/04/23 04:19:24;;;;;;;1.73;1.00;;;;;;;;;;5067878;28;20051;-52
2021/04/23 04:21:51;;;;;;;1.20;0.88;;;;;;;;;;5062015;28;20041;-51
2021/04/23 04:24:17;;;;;;;3.05;0.88;;;;;;;;;;5067250;28;20037;-51
2021/04/23 04:26:43;;;;;;;1.20;1.00;;;;;;;;;;5050356;28;20408;-54
2021/04/23 04:29:11;;;;;;;2.20;1.00;;;;;;;;;;5068019;28;20405;-56
2021/04/23 04:31:37;;;;;;;2.17;1.08;;;;;;;;;;5066041;28;20033;-53
2021/04/23 04:34:03;;;;;;;9.15;1.20;;;;;;;;;;5066312;28;20125;-55
2021/04/23 04:36:30;;;;;;;1.23;0.90;;;;;;;;;;5066169;28;20131;-52
2021/04/23 04:38:57;;;;;;;1.13;1.02;;;;;;;;;;5071419;28;20123;-51
2021/04/23 04:41:23;;;;;;;3.30;1.38;;;;;;;;;;5067414;28;20047;-54
2021/04/23 04:43:49;;;;;;;4.40;1.40;;;;;;;;;;5069713;28;20036;-55
2021/04/23 04:46:15;;;;;;;4.05;1.20;;;;;;;;;;5066967;28;20071;-53
2021/04/23 04:48:41;;;;;;;1.70;0.98;;;;;;;;;;5066342;28;20082;-57
2021/04/23 04:51:11;;;;;;;1.85;1.08;;;;;;;;;;5064486;28;20051;-52
2021/04/23 04:53:37;;;;;;;1.75;1.00;;;;;;;;;;5069936;28;20037;-53
2021/04/23 04:56:03;;;;;;;1.85;0.90;;;;;;;;;;5070871;28;20080;-53
2021/04/23 04:58:32;;;;;;;2.00;0.85;;;;;;;;;;5072847;28;20044;-56
2021/04/23 05:00:59;;;;;;;2.35;1.08;;;;;;;;;;5072630;28;20036;-52
2021/04/23 05:03:26;;;;;;;3.10;1.05;;;;;;;;;;5070343;28;20062;-53
2021/04/23 05:05:52;;;;;;;1.70;1.10;;;;;;;;;;5064112;28;20041;-52
2021/04/23 05:08:18;;;;;;;1.70;0.98;;;;;;;;;;5068827;28;20083;-51
2021/04/23 05:10:44;;;;;;;2.47;1.20;;;;;;;;;;5068533;28;20037;-51
2021/04/23 05:13:11;;;;;;;6.05;1.10;;;;;;;;;;5067697;28;20056;-51
2021/04/23 05:15:37;;;;;;;4.70;1.05;;;;;;;;;;5068574;28;20044;-54
2021/04/23 05:18:03;;;;;;;1.55;1.08;;;;;;;;;;5070974;28;20076;-54
2021/04/23 05:20:30;;;;;;;2.95;1.20;;;;;;;;;;5069625;28;20090;-57
2021/04/23 05:22:56;;;;;;;3.42;1.10;;;;;;;;;;5067440;28;20041;-53
2021/04/23 05:25:23;;;;;;;2.75;1.23;;;;;;;;;;5067832;28;20575;-56
2021/04/23 05:27:49;;;;;;;2.63;1.30;;;;;;;;;;5069790;28;20037;-52
2021/04/23 05:30:17;;;;;;;1.55;0.80;;;;;;;;;;5065146;28;20419;-56
2021/04/23 05:32:44;;;;;;;3.00;0.77;;;;;;;;;;5067679;28;20044;-51
2021/04/23 05:35:11;;;;;;;3.38;1.10;;;;;;;;;;5069211;28;20135;-57
2021/04/23 05:37:37;;;;;;;3.58;1.48;;;;;;;;;;5067697;28;20044;-54
2021/04/23 05:40:05;;;;;;;1.33;0.93;;;;;;;;;;5067735;28;20076;-57
2021/04/23 05:42:32;;;;;;;2.92;0.95;;;;;;;;;;5066118;28;20072;-61
2021/04/23 05:44:58;;;;;;;0.98;0.52;;;;;;;;;;5067957;28;20040;-53
2021/04/23 05:47:24;;;;;;;1.98;0.90;;;;;;;;;;5068050;28;20045;-56
2021/04/23 05:49:51;;;;;;;1.85;1.20;;;;;;;;;;5067185;28;20540;-55
2021/04/23 05:52:17;;;;;;;1.00;0.82;;;;;;;;;;5072956;28;20395;-55
2021/04/23 05:54:43;;;;;;;2.10;1.00;;;;;;;;;;5069913;28;20033;-56
2021/04/23 05:57:09;;;;;;;3.28;1.20;;;;;;;;;;5071209;28;20069;-51
2021/04/23 05:59:35;;;;;;;1.20;0.95;;;;;;;;;;5063105;28;20077;-56
2021/04/23 06:02:02;;;;;;;2.05;1.17;;;;;;;;;;5068176;28;20696;-56
2021/04/23 06:04:29;;;;;;;3.00;0.73;;;;;;;;;;5066983;28;20041;-53
2021/04/23 06:06:55;;;;;;;1.85;1.10;;;;;;;;;;5068518;28;20078;-57
2021/04/23 06:09:21;;;;;;;2.78;0.88;;;;;;;;;;5066789;28;20044;-57
2021/04/23 06:11:48;;;;;;;2.65;0.60;;;;;;;;;;5068090;28;20454;-55
2021/04/23 06:14:14;;;;;;;0.65;0.65;;;;;;;;;;5071216;28;20052;-58
2021/04/23 06:16:40;;;;;;;1.58;0.80;;;;;;;;;;5062684;28;20058;-54
2021/04/23 06:19:07;;;;;;;0.85;0.50;;;;;;;;;;5069330;28;20077;-56
2021/04/23 06:21:33;;;;;;;1.27;0.70;;;;;;;;;;5068460;28;20040;-56
2021/04/23 06:23:59;;;;;;;5.68;0.90;;;;;;;;;;5066723;28;20040;-56
2021/04/23 06:26:26;;;;;;;1.77;0.95;;;;;;;;;;5067532;28;20036;-53
2021/04/23 06:28:52;;;;;;;2.58;0.95;;;;;;;;;;5069190;28;20173;-56
2021/04/23 06:31:19;;;;;;;3.50;0.82;;;;;;;;;;5068940;28;20036;-55
2021/04/23 06:33:47;;;;;;;2.13;0.60;;;;;;;;;;5067042;28;20067;-56
2021/04/23 06:36:14;;;;;;;1.25;0.60;;;;;;;;;;5067501;28;20051;-56
2021/04/23 06:38:41;;;;;;;2.70;0.90;;;;;;;;;;5067881;28;20044;-55
2021/04/23 06:41:09;;;;;;;1.98;0.93;;;;;;;;;;5065679;28;20040;-57
2021/04/23 06:43:35;;;;;;;3.25;0.80;;;;;;;;;;5066049;28;20052;-57
2021/04/23 06:46:03;;;;;;;1.85;0.77;;;;;;;;;;5069091;28;20041;-57
2021/04/23 06:48:30;;;;;;;0.52;0.40;;;;;;;;;;5068362;28;20028;-56
2021/04/23 06:50:56;;;;;;;2.97;0.88;;;;;;;;;;5066976;28;20040;-54
2021/04/23 06:53:23;;;;;;;0.65;0.50;;;;;;;;;;5069482;28;20557;-53
2021/04/23 06:55:50;;;;;;;1.45;0.65;;;;;;;;;;5071133;28;20097;-56
2021/04/23 06:58:17;;;;;;;2.08;0.70;;;;;;;;;;5067878;28;20045;-56
2021/04/23 07:00:43;;;;;;;1.45;0.47;;;;;;;;;;5072519;28;20041;-57
2021/04/23 07:03:10;;;;;;;1.08;0.40;;;;;;;;;;5068017;28;20044;-57
2021/04/23 07:05:40;;;;;;;3.28;0.88;;;;;;;;;;5066692;28;20090;-57
2021/04/23 07:08:07;;;;;;;1.80;0.63;;;;;;;;;;5064098;28;20496;-58
2021/04/23 07:10:37;;;;;;;0.88;0.60;;;;;;;;;;5068910;28;20052;-56
2021/04/23 07:13:04;;;;;;;1.60;0.75;;;;;;;;;;5065422;28;20049;-55
2021/04/23 07:15:31;;;;;;;2.00;0.70;;;;;;;;;;5062726;28;20523;-53
2021/04/23 07:17:58;;;;;;;1.00;0.82;;;;;;;;;;5069191;28;20511;-56
2021/04/23 07:20:39;;;;;;;1.23;0.60;;;;;;;;;;5067641;28;20040;-56
2021/04/23 07:23:07;;;;;;;1.13;0.55;;;;;;;;;;5069131;28;20056;-59
2021/04/23 07:25:33;;;;;;;0.90;0.50;;;;;;;;;;5071647;28;20087;-56
2021/04/23 07:28:00;;;;;;;1.00;0.65;;;;;;;;;;5068816;28;20064;-56
2021/04/23 07:30:28;;;;;;;;;;;;;;;;;;5066268;28;20139;-56
2021/04/23 07:32:55;;;;;;;0.93;0.52;;;;;;;;;;5063456;28;20359;-54
2021/04/23 07:35:22;;;;;;;0.85;0.47;;;;;;;;;;5069034;28;20037;-53
2021/04/23 07:37:49;;;;;;;2.60;0.60;;;;;;;;;;5066867;28;20051;-55
2021/04/23 07:40:16;;;;;;;1.35;0.70;;;;;;;;;;5067904;28;20040;-53
2021/04/23 07:42:42;;;;;;;0.57;0.55;;;;;;;;;;5069864;28;20044;-56
2021/04/23 07:45:09;;;;;;;4.80;0.60;;;;;;;;;;5067808;28;20060;-56
2021/04/23 07:47:36;;;;;;;2.05;0.50;;;;;;;;;;5068815;28;20036;-55
2021/04/23 07:50:03;;;;;;;2.63;0.50;;;;;;;;;;5066153;28;20045;-57
2021/04/23 07:52:30;;;;;;;;;;;;;;;;;;5069614;28;20040;-56
2021/04/23 07:54:57;;;;;;;1.67;0.57;;;;;;;;;;5061597;28;19951;-54
2021/04/23 07:57:24;;;;;;;1.13;0.57;;;;;;;;;;5071100;28;20040;-56
2021/04/23 07:59:50;;;;;;;1.50;0.40;;;;;;;;;;5068924;28;20037;-55
2021/04/23 08:02:16;;;;;;;0.77;0.57;;;;;;;;;;5068573;28;20489;-56
2021/04/23 08:04:43;;;;;;;3.25;0.60;;;;;;;;;;5071422;28;20036;-54
2021/04/23 08:07:11;;;;;;;0.63;0.50;;;;;;;;;;5068788;28;20053;-57
2021/04/23 08:09:39;;;;;;;2.30;0.60;;;;;;;;;;5071629;28;20049;-56
2021/04/23 08:12:06;;;;;;;1.90;0.85;;;;;;;;;;5069601;28;20052;-56
2021/04/23 08:14:33;;;;;;;1.63;0.55;;;;;;;;;;5071655;28;20047;-56
2021/04/23 08:16:59;;;;;;;0.60;0.38;;;;;;;;;;5071176;28;20504;-58
2021/04/23 08:19:26;;;;;;;0.95;0.47;;;;;;;;;;5070081;28;20072;-57
2021/04/23 08:21:53;;;;;;;0.90;0.70;;;;;;;;;;5070114;28;20093;-54
2021/04/23 08:24:19;;;;;;;2.63;0.40;;;;;;;;;;5068503;28;20044;-55
2021/04/23 08:26:45;;;;;;;1.13;0.43;;;;;;;;;;5069863;28;20033;-56
2021/04/23 08:29:13;;;;;;;2.22;0.50;;;;;;;;;;5072285;28;21122;-57
2021/04/23 08:31:43;;;;;;;0.88;0.57;;;;;;;;;;5071097;28;20493;-57
2021/04/23 08:34:10;;;;;;;0.32;0.30;;;;;;;;;;5071733;28;20528;-56
2021/04/23 08:36:37;;;;;;;0.63;0.50;;;;;;;;;;5070987;28;20049;-57
2021/04/23 08:39:04;;;;;;;1.20;0.68;;;;;;;;;;5072394;28;20048;-56
2021/04/23 08:41:30;;;;;;;0.80;0.50;;;;;;;;;;5071536;28;20036;-55
2021/04/23 08:43:57;;;;;;;2.35;0.55;;;;;;;;;;5072611;28;20043;-56
2021/04/23 08:46:23;;;;;;;0.38;0.38;;;;;;;;;;5069987;28;20037;-56
2021/04/23 08:48:49;;;;;;;1.33;0.45;;;;;;;;;;5067741;28;20052;-56
2021/04/23 08:51:19;;;;;;;1.48;0.50;;;;;;;;;;5066725;28;20451;-54
2021/04/23 08:53:46;;;;;;;1.50;0.50;;;;;;;;;;5068613;28;20057;-58
2021/04/23 08:56:12;;;;;;;0.60;0.60;;;;;;;;;;5069882;28;20041;-55
2021/04/23 08:58:39;;;;;;;1.35;0.55;;;;;;;;;;5064564;28;20118;-58
2021/04/23 09:01:05;;;;;;;0.50;0.50;;;;;;;;;;5067039;28;20078;-56
2021/04/23 09:03:31;;;;;;;0.65;0.50;;;;;;;;;;5068323;28;20067;-57
2021/04/23 09:06:08;;;;;;;0.20;0.20;;;;;;;;;;5068550;28;20090;-54
2021/04/23 09:08:35;;;;;;;0.47;0.40;;;;;;;;;;5066282;28;20049;-56
2021/04/23 09:11:15;;;;;;;1.20;0.60;;;;;;;;;;5067948;28;20044;-55
2021/04/23 09:13:48;;;;;;;0.70;0.50;;;;;;;;;;5070571;28;20072;-57
2021/04/23 09:16:17;;;;;;;0.68;0.40;;;;;;;;;;5067944;28;20115;-57
2021/04/23 09:18:51;;;;;;;1.13;0.47;;;;;;;;;;5068385;28;20052;-55
2021/04/23 09:21:17;;;;;;;0.47;0.40;;;;;;;;;;5069847;28;20115;-55
2021/04/23 09:23:51;;;;;;;1.15;0.50;;;;;;;;;;5067435;28;20126;-56
2021/04/23 09:26:30;;;;;;;0.85;0.60;;;;;;;;;;5067373;28;20486;-51
2021/04/23 09:28:57;;;;;;;4.78;0.77;;;;;;;;;;5068304;28;20051;-57
2021/04/23 09:31:24;;;;;;;1.75;0.70;;;;;;;;;;5067895;28;20045;-56
2021/04/23 09:33:51;;;;;;;1.87;0.70;;;;;;;;;;5070634;28;20074;-55
2021/04/23 09:36:24;;;;;;;1.55;0.65;;;;;;;;;;5070473;28;20301;-57
2021/04/23 09:39:09;;;;;;;2.05;0.57;;;;;;;;;;5070805;28;20064;-55
2021/04/23 09:41:36;;;;;;;0.98;0.47;;;;;;;;;;5068201;28;20102;-52
2021/04/23 09:44:03;;;;;;;0.40;0.30;;;;;;;;;;5070201;28;20050;-53
2021/04/23 09:46:36;;;;;;;0.75;0.50;;;;;;;;;;5069262;28;20115;-56
2021/04/23 09:49:19;;;;;;;1.25;0.60;;;;;;;;;;5068947;28;20059;-51
2021/04/23 09:51:45;;;;;;;0.75;0.45;;;;;;;;;;5069460;28;20040;-53
2021/04/23 09:54:13;;;;;;;1.73;0.30;;;;;;;;;;5066323;28;20037;-53
2021/04/23 09:56:39;;;;;;;1.10;0.50;;;;;;;;;;5065495;28;20260;-53
2021/04/23 09:59:17;;;;;;;1.35;0.60;;;;;;;;;;5066061;28;20077;-53
2021/04/23 10:01:59;;;;;;;1.23;0.60;;;;;;;;;;5068100;28;20040;-53
2021/04/23 10:04:28;;;;;;;0.70;0.30;;;;;;;;;;5064498;28;20144;-56
2021/04/23 10:07:14;;;;;;;2.47;0.55;;;;;;;;;;5067144;28;20040;-53
2021/04/23 10:09:57;;;;;;;0.90;0.40;;;;;;;;;;5069029;28;20061;-54
2021/04/23 10:12:30;;;;;;;1.17;0.43;;;;;;;;;;5067361;28;20174;-56
2021/04/23 10:15:00;;;;;;;0.75;0.50;;;;;;;;;;5066822;28;20412;-56
2021/04/23 10:17:28;;;;;;;0.35;0.35;;;;;;;;;;5069804;28;20048;-56
2021/04/23 10:19:55;;;;;;;2.03;0.55;;;;;;;;;;5066217;28;20048;-55
2021/04/23 10:22:21;;;;;;;1.17;0.30;;;;;;;;;;5066442;28;20044;-53
2021/04/23 10:24:50;;;;;;;0.63;0.40;;;;;;;;;;5066956;28;20102;-56
2021/04/23 10:27:18;;;;;;;1.37;0.50;;;;;;;;;;5068159;28;20045;-54
2021/04/23 10:29:45;;;;;;;0.43;0.30;;;;;;;;;;5071123;28;20668;-52
2021/04/23 10:32:12;;;;;;;;;;;;;;;;;;5066389;28;20049;-55
2021/04/23 10:34:38;;;;;;;2.08;0.50;;;;;;;;;;5073351;28;19924;-56
2021/04/23 10:37:05;;;;;;;0.20;0.20;;;;;;;;;;5067338;28;20055;-56
2021/04/23 10:39:39;;;;;;;0.60;0.30;;;;;;;;;;5061712;28;20509;-51
2021/04/23 10:42:06;;;;;;;1.08;0.45;;;;;;;;;;5069333;28;20075;-52
2021/04/23 10:44:49;;;;;;;0.40;0.40;;;;;;;;;;5063996;28;20041;-54
2021/04/23 10:47:29;;;;;;;0.30;0.30;;;;;;;;;;5068872;28;20119;-52
2021/04/23 10:50:06;;;;;;;0.20;0.20;;;;;;;;;;5067816;28;20120;-55
2021/04/23 10:52:32;;;;;;;0.88;0.40;;;;;;;;;;5065265;28;20040;-55
2021/04/23 10:55:07;;;;;;;2.10;0.80;;;;;;;;;;5066158;28;20044;-56
2021/04/23 10:57:51;;;;;;;0.35;0.28;;;;;;;;;;5070964;28;20067;-54
2021/04/23 11:00:35;;;;;;;0.40;0.40;;;;;;;;;;5070113;28;20174;-56
2021/04/23 11:03:17;;;;;;;0.73;0.60;;;;;;;;;;5069447;28;20056;-53
2021/04/23 11:05:44;;;;;;;4.05;0.60;;;;;;;;;;5066033;28;20098;-53
2021/04/23 11:08:11;;;;;;;0.20;0.20;;;;;;;;;;5068180;28;20055;-53
2021/04/23 11:10:57;;;;;;;1.17;0.43;;;;;;;;;;5065860;28;20048;-54
2021/04/23 11:13:24;;;;;;;0.25;0.25;;;;;;;;;;5066268;28;20134;-52
2021/04/23 11:16:09;;;;;;;0.30;0.30;;;;;;;;;;5065744;28;20072;-53
2021/04/23 11:18:36;;;;;;;1.13;0.50;;;;;;;;;;5066485;28;20036;-52
2021/04/23 11:21:21;;;;;;;0.52;0.43;;;;;;;;;;5065829;28;20049;-54
2021/04/23 11:24:06;;;;;;;1.00;0.50;;;;;;;;;;5065808;28;20048;-53
2021/04/23 11:26:51;;;;;;;1.05;0.52;;;;;;;;;;5069164;28;20045;-54
2021/04/23 11:29:19;;;;;;;1.23;0.40;;;;;;;;;;5068804;28;20061;-53
2021/04/23 11:32:04;;;;;;;0.68;0.43;;;;;;;;;;5070447;28;20040;-52
2021/04/23 11:34:31;;;;;;;5.18;0.40;;;;;;;;;;5068624;28;20048;-57
2021/04/23 11:37:01;;;;;;;0.80;0.30;;;;;;;;;;5070720;28;20048;-56
2021/04/23 11:39:30;;;;;;;0.40;0.30;;;;;;;;;;5071433;28;20044;-51
2021/04/23 11:42:08;;;;;;;1.23;0.50;;;;;;;;;;5070499;28;20045;-52
2021/04/23 11:44:44;;;;;;;0.40;0.40;;;;;;;;;;5070000;28;20040;-53
2021/04/23 11:47:11;;;;;;;0.32;0.32;;;;;;;;;;5067524;28;20082;-55
2021/04/23 11:49:37;;;;;;;2.63;0.40;;;;;;;;;;5070188;28;20044;-53
2021/04/23 11:52:04;;;;;;;0.40;0.30;;;;;;;;;;5070741;28;20348;-53
2021/04/23 11:54:32;;;;;;;0.40;0.32;;;;;;;;;;5071204;28;20525;-53
2021/04/23 11:57:02;;;;;;;0.73;0.50;;;;;;;;;;5070735;28;20048;-52
2021/04/23 11:59:28;;;;;;;0.85;0.52;;;;;;;;;;5070236;28;20036;-51
2021/04/23 12:01:55;;;;;;;0.35;0.30;;;;;;;;;;5070852;28;20033;-54
2021/04/23 12:04:40;;;;;;;0.40;0.23;;;;;;;;;;5068649;28;20072;-56
2021/04/23 12:07:07;;;;;;;2.35;0.40;;;;;;;;;;5084305;28;20427;-54
2021/04/23 12:09:33;;;;;;;1.70;0.68;;;;;;;;;;5069365;28;20067;-52
2021/04/23 12:12:17;;;;;;;0.35;0.35;;;;;;;;;;5067064;28;20102;-51
2021/04/23 12:14:46;;;;;;;1.13;0.30;;;;;;;;;;5068097;28;20090;-55
2021/04/23 12:17:13;;;;;;;0.65;0.40;;;;;;;;;;5070990;28;20044;-56
2021/04/23 12:19:39;;;;;;;0.10;0.10;;;;;;;;;;5071384;28;20047;-54
2021/04/23 12:22:06;;;;;;;0.82;0.40;;;;;;;;;;5066600;28;20048;-52
2021/04/23 12:24:33;;;;;;;0.85;0.35;;;;;;;;;;5072103;28;20079;-54
2021/04/23 12:26:59;;;;;;;0.43;0.25;;;;;;;;;;5065885;28;20047;-54
2021/04/23 12:29:26;;;;;;;0.15;0.15;;;;;;;;;;5067984;28;20044;-53
2021/04/23 12:31:52;;;;;;;0.55;0.30;;;;;;;;;;5065764;28;20079;-55
2021/04/23 12:34:19;;;;;;;1.08;0.40;;;;;;;;;;5069605;28;20053;-53
2021/04/23 12:36:47;;;;;;;0.65;0.30;;;;;;;;;;5069110;28;20052;-54
2021/04/23 12:39:19;;;;;;;0.95;0.40;;;;;;;;;;5068169;28;20106;-53
2021/04/23 12:41:52;;;;;;;0.40;0.38;;;;;;;;;;5068735;28;20044;-54
2021/04/23 12:44:20;;;;;;;0.70;0.40;;;;;;;;;;5067889;28;20044;-56
2021/04/23 12:46:46;;;;;;;;;;;;;;;;;;5071899;28;20037;-55
2021/04/23 12:49:12;;;;;;;0.22;0.22;;;;;;;;;;5068911;28;19935;-56
2021/04/23 12:51:44;;;;;;;2.40;0.40;;;;;;;;;;5072203;28;20036;-55
2021/04/23 12:54:11;;;;;;;1.17;0.47;;;;;;;;;;5065748;28;20136;-56
2021/04/23 12:56:37;;;;;;;0.55;0.40;;;;;;;;;;5070988;28;20058;-53
2021/04/23 12:59:04;;;;;;;1.60;0.50;;;;;;;;;;5062515;28;20041;-51
2021/04/23 13:01:33;;;;;;;1.67;0.40;;;;;;;;;;5068713;28;20557;-53
2021/04/23 13:04:02;;;;;;;1.08;0.50;;;;;;;;;;5069613;28;20041;-55
2021/04/23 13:06:28;;;;;;;0.35;0.32;;;;;;;;;;5068422;28;20033;-55
2021/04/23 13:08:58;;;;;;;0.40;0.30;;;;;;;;;;5070752;28;20044;-55
2021/04/23 13:11:24;;;;;;;2.05;0.50;;;;;;;;;;5067687;28;20036;-56
2021/04/23 13:13:51;;;;;;;0.77;0.32;;;;;;;;;;5069118;28;20051;-50
2021/04/23 13:16:17;;;;;;;0.20;0.20;;;;;;;;;;5070473;28;20129;-55
2021/04/23 13:18:45;;;;;;;1.73;0.80;;;;;;;;;;5075950;28;20048;-54
2021/04/23 13:21:12;;;;;;;1.65;0.45;;;;;;;;;;5069093;28;20125;-50
2021/04/23 13:23:40;;;;;;;2.58;0.40;;;;;;;;;;5072120;28;20076;-52
2021/04/23 13:26:10;;;;;;;2.30;0.50;;;;;;;;;;5067511;28;20040;-55
2021/04/23 13:28:42;;;;;;;2.05;0.63;;;;;;;;;;5071280;28;20037;-54
2021/04/23 13:31:15;;;;;;;2.30;0.50;;;;;;;;;;5067924;28;20071;-53
2021/04/23 13:33:42;;;;;;;0.50;0.38;;;;;;;;;;5064239;28;20508;-52
2021/04/23 13:36:08;;;;;;;0.45;0.45;;;;;;;;;;5067350;28;20120;-53
2021/04/23 13:38:36;;;;;;;0.28;0.25;;;;;;;;;;5064489;28;20106;-53
2021/04/23 13:41:11;;;;;;;0.25;0.25;;;;;;;;;;5059505;28;20036;-52
2021/04/23 13:43:39;;;;;;;0.73;0.30;;;;;;;;;;5070074;28;20047;-56
2021/04/23 13:46:09;;;;;;;1.13;0.43;;;;;;;;;;5068333;28;20052;-55
2021/04/23 13:48:36;;;;;;;1.33;0.50;;;;;;;;;;5071477;28;20110;-51
2021/04/23 13:51:03;;;;;;;2.70;0.60;;;;;;;;;;5069130;28;20041;-53
2021/04/23 13:53:35;;;;;;;1.27;0.40;;;;;;;;;;5069921;28;20520;-55
2021/04/23 13:56:11;;;;;;;0.98;0.47;;;;;;;;;;5067318;28;20052;-55
2021/04/23 13:58:54;;;;;;;0.90;0.40;;;;;;;;;;5064118;28;20556;-53
2021/04/23 14:01:34;;;;;;;3.22;0.63;;;;;;;;;;5065521;28;20102;-53
2021/04/23 14:04:04;;;;;;;2.28;0.52;;;;;;;;;;5075528;28;20040;-55
2021/04/23 14:06:31;;;;;;;4.82;0.82;;;;;;;;;;5068281;28;20203;-54
2021/04/23 14:08:57;;;;;;;1.30;0.57;;;;;;;;;;5068601;28;20127;-51
2021/04/23 14:11:24;;;;;;;0.47;0.47;;;;;;;;;;5064767;28;20065;-52
2021/04/23 14:13:58;;;;;;;0.80;0.45;;;;;;;;;;5064749;28;20084;-55
2021/04/23 14:16:25;;;;;;;0.50;0.50;;;;;;;;;;5063843;28;20078;-53
2021/04/23 14:18:52;;;;;;;3.08;0.43;;;;;;;;;;5067222;28;20085;-54
2021/04/23 14:21:18;;;;;;;0.93;0.60;;;;;;;;;;5066465;28;20048;-56
2021/04/23 14:23:45;;;;;;;2.30;0.50;;;;;;;;;;5066815;28;20055;-52
2021/04/23 14:26:11;;;;;;;1.60;0.45;;;;;;;;;;5063196;28;20041;-56
2021/04/23 14:28:37;;;;;;;1.63;0.60;;;;;;;;;;5065707;28;20040;-56
2021/04/23 14:31:03;;;;;;;2.03;0.50;;;;;;;;;;5065090;28;20093;-55
2021/04/23 14:33:30;;;;;;;2.83;0.40;;;;;;;;;;5069179;28;20033;-53
2021/04/23 14:35:56;;;;;;;0.63;0.30;;;;;;;;;;5066632;28;20044;-52
2021/04/23 14:38:23;;;;;;;5.65;0.70;;;;;;;;;;5068435;28;20043;-53
2021/04/23 14:40:49;;;;;;;2.00;0.70;;;;;;;;;;5070155;28;20037;-54
2021/04/23 14:43:15;;;;;;;2.10;0.43;;;;;;;;;;5065878;28;20040;-56
2021/04/23 14:45:42;;;;;;;2.13;0.80;;;;;;;;;;5065225;28;20041;-53
2021/04/23 14:48:09;;;;;;;1.30;0.50;;;;;;;;;;5064235;28;20045;-55
2021/04/23 14:50:35;;;;;;;1.13;0.45;;;;;;;;;;5069711;28;20048;-50
2021/04/23 14:53:01;;;;;;;0.50;0.30;;;;;;;;;;5070149;28;20041;-55